Time;durP1;ratioP1;P1;durP2;ratioP2;P2;SDS_P1;SDS_P2;PMS_P1;PMS_P2;Temp;Humidity;BMP_temperature;BMP_pressure;BME280_temperature;BME280_humidity;BME280_pressure;Samples;Min_cycle;Max_cycle;Signal;HPM_P1;HPM_P2
2022/08/04 00:00:04;;;;;;;8.75;4.35;;;;;;;22.09;71.12;101198.91;5001047;28;20041;-58
2022/08/04 00:02:30;;;;;;;7.38;4.55;;;;;;;21.99;71.17;101190.56;5018319;28;20034;-57
2022/08/04 00:05:02;;;;;;;7.27;4.03;;;;;;;22.02;71.48;101187.38;5020760;28;20049;-58
2022/08/04 00:07:49;;;;;;;10.93;4.95;;;;;;;21.97;71.83;101184.53;5019048;28;20645;-58
2022/08/04 00:10:17;;;;;;;6.68;4.63;;;;;;;21.89;71.33;101182.22;5020341;28;20025;-57
2022/08/04 00:12:46;;;;;;;12.60;5.00;;;;;;;21.84;71.53;101176.69;5020679;28;20083;-58
2022/08/04 00:15:15;;;;;;;8.60;4.70;;;;;;;21.88;71.68;101181.38;5023952;28;20060;-58
2022/08/04 00:17:47;;;;;;;10.75;5.40;;;;;;;21.87;71.86;101179.75;5022261;28;20029;-58
2022/08/04 00:20:18;;;;;;;6.97;4.55;;;;;;;21.88;72.13;101181.38;5025002;28;20026;-58
2022/08/04 00:22:45;;;;;;;7.45;4.30;;;;;;;21.85;71.97;101179.16;5023939;28;20080;-59
2022/08/04 00:25:11;;;;;;;13.30;5.13;;;;;;;21.86;72.27;101178.09;5021969;28;20550;-58
2022/08/04 00:27:37;;;;;;;9.82;4.57;;;;;;;21.95;72.13;101171.25;5021819;28;20025;-58
2022/08/04 00:30:04;;;;;;;9.75;4.97;;;;;;;21.86;71.85;101171.88;5027293;28;20040;-58
2022/08/04 00:32:30;;;;;;;8.95;4.55;;;;;;;21.85;71.92;101164.81;5020676;28;20466;-58
2022/08/04 00:34:57;;;;;;;8.43;4.80;;;;;;;21.83;71.84;101175.88;5021782;28;21737;-59
2022/08/04 00:37:23;;;;;;;12.40;4.90;;;;;;;21.87;72.00;101160.81;5021705;28;20084;-59
2022/08/04 00:39:50;;;;;;;8.30;4.88;;;;;;;21.95;71.98;101160.44;5023021;28;20036;-58
2022/08/04 00:42:18;;;;;;;8.45;5.20;;;;;;;21.93;71.91;101156.34;5024594;28;20025;-58
2022/08/04 00:45:02;;;;;;;9.75;4.97;;;;;;;22.02;71.49;101148.69;5025851;28;20474;-57
2022/08/04 00:47:59;;;;;;;9.48;4.38;;;;;;;22.15;70.88;101156.56;5019067;28;20025;-58
2022/08/04 00:51:07;;;;;;;11.95;4.55;;;;;;;22.20;70.44;101154.78;5019458;28;20416;-58
2022/08/04 00:53:53;;;;;;;8.40;4.18;;;;;;;22.29;69.78;101155.25;4989149;28;20037;-58
2022/08/04 00:56:43;;;;;;;7.90;4.43;;;;;;;22.36;69.16;101160.50;5030275;28;20030;-58
2022/08/04 00:59:48;;;;;;;10.32;4.85;;;;;;;22.43;68.80;101150.34;5020351;28;20036;-58
2022/08/04 01:02:27;;;;;;;10.65;4.68;;;;;;;22.46;68.61;101153.41;5020459;28;20021;-58
2022/08/04 01:05:12;;;;;;;10.65;4.45;;;;;;;22.49;68.01;101146.69;5022616;28;20546;-58
2022/08/04 01:07:56;;;;;;;12.80;4.90;;;;;;;22.54;67.90;101144.88;5020086;28;20624;-58
2022/08/04 01:10:57;;;;;;;10.90;4.35;;;;;;;22.58;67.58;101139.84;5025517;28;20029;-58
2022/08/04 01:13:41;;;;;;;9.68;4.57;;;;;;;22.55;67.22;101129.47;5020114;28;20071;-58
2022/08/04 01:16:12;;;;;;;17.35;5.07;;;;;;;22.54;67.13;101128.63;5019151;28;20559;-58
2022/08/04 01:18:45;;;;;;;13.90;5.10;;;;;;;22.53;67.16;101131.59;5024437;28;20121;-58
2022/08/04 01:21:30;;;;;;;13.15;5.40;;;;;;;22.58;66.83;101120.06;5023458;28;20527;-58
2022/08/04 01:24:15;;;;;;;12.65;5.07;;;;;;;22.59;66.94;101119.00;5019744;28;20171;-58
2022/08/04 01:26:56;;;;;;;11.93;4.95;;;;;;;22.53;66.58;101124.28;5026340;28;20376;-57
2022/08/04 01:29:25;;;;;;;12.43;5.00;;;;;;;22.52;66.75;101113.72;5024671;28;20045;-58
2022/08/04 01:32:28;;;;;;;9.23;4.65;;;;;;;22.49;66.33;101115.00;5021351;28;20033;-58
2022/08/04 01:35:02;;;;;;;11.55;4.85;;;;;;;22.39;66.35;101098.59;4943773;28;20043;-58
2022/08/04 01:37:30;;;;;;;11.02;5.03;;;;;;;22.47;66.49;101109.03;5007020;28;20037;-58
2022/08/04 01:40:06;;;;;;;11.27;5.13;;;;;;;22.48;66.37;101101.72;5021937;28;20121;-58
2022/08/04 01:42:34;;;;;;;8.48;4.90;;;;;;;22.46;66.24;101099.25;5023074;28;20033;-57
2022/08/04 01:45:02;;;;;;;15.23;4.78;;;;;;;22.47;66.21;101108.22;5024333;28;20033;-58
2022/08/04 01:47:29;;;;;;;10.57;5.07;;;;;;;22.46;66.16;101104.69;5019611;28;20037;-58
2022/08/04 01:50:03;;;;;;;11.80;4.88;;;;;;;22.47;65.81;101098.19;5021847;28;20080;-58
2022/08/04 01:52:31;;;;;;;9.32;4.40;;;;;;;22.47;65.88;101103.63;5024094;28;20028;-58
2022/08/04 01:54:56;;;;;;;13.80;4.72;;;;;;;22.50;65.54;101099.59;5021799;28;20037;-58
2022/08/04 01:57:23;;;;;;;14.70;4.70;;;;;;;22.52;65.60;101101.00;5023231;28;20058;-58
2022/08/04 01:59:50;;;;;;;8.95;4.45;;;;;;;22.52;65.47;101103.69;5043556;23;20103;-56
2022/08/04 02:02:16;;;;;;;12.57;4.65;;;;;;;22.50;65.42;101095.00;5021850;28;20029;-57
2022/08/04 02:04:42;;;;;;;7.57;4.50;;;;;;;22.51;65.31;101098.53;5024116;28;20031;-58
2022/08/04 02:07:21;;;;;;;7.90;4.18;;;;;;;22.55;65.25;101107.81;5022364;28;20025;-57
2022/08/04 02:09:59;;;;;;;13.43;4.38;;;;;;;22.51;65.11;101103.94;5021195;28;20402;-59
2022/08/04 02:12:39;;;;;;;14.65;4.15;;;;;;;22.51;65.37;101102.06;5025521;28;20474;-59
2022/08/04 02:15:27;;;;;;;9.13;3.90;;;;;;;22.49;65.02;101095.25;5019009;28;20044;-58
2022/08/04 02:18:04;;;;;;;10.70;4.00;;;;;;;22.47;65.24;101098.19;5024395;28;20588;-59
2022/08/04 02:20:33;;;;;;;8.68;3.75;;;;;;;22.47;64.75;101102.78;5023855;28;20034;-57
2022/08/04 02:23:09;;;;;;;12.95;4.40;;;;;;;22.45;64.88;101094.91;5023632;28;20025;-59
2022/08/04 02:25:55;;;;;;;10.82;4.45;;;;;;;22.42;65.28;101100.00;5024311;28;20017;-58
2022/08/04 02:28:31;;;;;;;12.75;4.55;;;;;;;22.21;65.14;101090.66;5022943;28;20397;-57
2022/08/04 02:31:03;;;;;;;10.40;4.70;;;;;;;22.20;65.23;101094.44;5022379;28;20091;-58
2022/08/04 02:33:42;;;;;;;12.52;4.93;;;;;;;22.02;65.98;101100.84;5020977;28;20025;-58
2022/08/04 02:36:09;;;;;;;10.90;5.70;;;;;;;21.88;66.10;101102.16;5021730;28;20033;-59
2022/08/04 02:38:55;;;;;;;11.20;5.43;;;;;;;21.86;66.88;101096.97;5024350;28;20044;-59
2022/08/04 02:41:23;;;;;;;12.55;4.97;;;;;;;21.66;66.69;101091.13;5019078;28;20021;-57
2022/08/04 02:43:50;;;;;;;12.63;5.60;;;;;;;21.68;67.00;101091.72;5023823;28;20512;-58
2022/08/04 02:46:17;;;;;;;14.73;5.50;;;;;;;21.52;67.38;101090.59;5026034;28;20025;-58
2022/08/04 02:48:45;;;;;;;14.20;4.88;;;;;;;21.40;67.50;101091.66;5023474;28;20249;-58
2022/08/04 02:51:12;;;;;;;15.45;5.22;;;;;;;21.38;67.92;101091.06;5023442;28;20043;-59
2022/08/04 02:53:40;;;;;;;11.95;4.88;;;;;;;21.28;68.03;101089.78;5022480;28;20040;-59
2022/08/04 02:56:08;;;;;;;10.43;5.20;;;;;;;21.25;68.19;101090.25;5020764;28;20033;-59
2022/08/04 02:58:34;;;;;;;12.80;5.43;;;;;;;21.26;68.32;101091.06;5020057;28;20025;-59
2022/08/04 03:01:00;;;;;;;10.88;5.50;;;;;;;21.16;68.84;101085.41;5024698;28;20032;-59
2022/08/04 03:03:42;;;;;;;9.68;5.28;;;;;;;21.18;69.17;101084.13;5022037;28;20021;-57
2022/08/04 03:06:11;;;;;;;12.48;5.07;;;;;;;21.09;69.21;101088.19;5022961;28;20028;-58
2022/08/04 03:09:14;;;;;;;10.35;5.20;;;;;;;21.10;69.30;101086.31;5023665;28;20108;-59
2022/08/04 03:12:04;;;;;;;16.48;5.53;;;;;;;21.08;69.48;101096.53;5023622;28;20033;-57
2022/08/04 03:14:36;;;;;;;10.68;5.30;;;;;;;20.85;69.34;101103.56;5024683;28;20029;-57
2022/08/04 03:17:28;;;;;;;14.02;5.95;;;;;;;20.84;69.83;101093.81;5021292;28;20060;-59
2022/08/04 03:20:38;;;;;;;16.98;5.95;;;;;;;20.85;70.19;101102.75;5025303;28;20043;-57
2022/08/04 03:23:37;;;;;;;12.15;5.80;;;;;;;20.83;69.85;101089.47;5004047;28;20049;-57
2022/08/04 03:26:12;;;;;;;11.93;5.90;;;;;;;20.67;70.12;101095.53;5023108;28;20021;-58
2022/08/04 03:29:11;;;;;;;13.90;5.20;;;;;;;20.68;70.58;101100.69;5024747;28;20473;-58
2022/08/04 03:31:48;;;;;;;12.70;5.82;;;;;;;20.68;70.58;101094.47;5022706;28;20108;-57
2022/08/04 03:34:27;;;;;;;10.82;6.22;;;;;;;20.51;70.35;101094.31;5023802;28;20026;-59
2022/08/04 03:37:04;;;;;;;;;;;;;;;20.69;70.26;101091.56;5019888;28;20029;-57
2022/08/04 03:40:05;;;;;;;11.80;6.35;;;;;;;20.37;70.84;101096.34;5022572;28;19913;-58
2022/08/04 03:43:01;;;;;;;13.32;6.68;;;;;;;20.17;71.50;101086.88;5020656;28;20391;-57
2022/08/04 03:46:11;;;;;;;15.30;6.50;;;;;;;20.03;71.88;101105.09;5020454;28;20041;-58
2022/08/04 03:49:01;;;;;;;14.20;7.13;;;;;;;19.87;72.32;101098.44;5022726;28;20039;-57
2022/08/04 03:54:38;;;;;;;19.83;7.07;;;;;;;19.70;73.34;101105.50;5027392;28;20430;-58
2022/08/04 03:57:31;;;;;;;16.35;7.43;;;;;;;19.63;74.03;101104.72;5024429;28;20927;-58
2022/08/04 04:00:04;;;;;;;13.95;6.75;;;;;;;19.62;74.51;101109.28;5026297;28;20034;-57
2022/08/04 04:03:00;;;;;;;13.95;7.38;;;;;;;19.60;74.99;101106.00;5027608;28;20025;-58
2022/08/04 04:05:46;;;;;;;11.25;7.00;;;;;;;19.61;75.31;101106.81;5023946;28;20060;-59
2022/08/04 04:08:39;;;;;;;20.58;8.05;;;;;;;19.63;75.87;101091.25;5027381;28;20026;-57
2022/08/04 04:11:13;;;;;;;19.83;8.68;;;;;;;19.75;75.82;101102.94;5027570;28;20021;-58
2022/08/04 04:14:03;;;;;;;16.63;8.00;;;;;;;19.83;76.09;101108.03;5024707;28;20072;-56
2022/08/04 04:16:58;;;;;;;14.35;7.45;;;;;;;19.87;75.95;101111.91;5024218;28;20242;-59
2022/08/04 04:19:41;;;;;;;15.48;7.75;;;;;;;19.92;76.16;101113.94;5022542;28;20636;-58
2022/08/04 04:22:37;;;;;;;14.55;7.80;;;;;;;20.00;76.08;101113.66;5022493;28;20037;-59
2022/08/04 04:25:08;;;;;;;14.85;7.28;;;;;;;19.93;75.84;101121.78;5026313;28;20021;-59
2022/08/04 04:27:47;;;;;;;14.35;7.78;;;;;;;19.99;75.97;101110.13;5024965;28;20676;-57
2022/08/04 04:30:29;;;;;;;15.05;7.47;;;;;;;20.09;76.21;101118.50;5024268;28;20079;-57
2022/08/04 04:33:14;;;;;;;14.52;7.72;;;;;;;20.10;76.25;101111.22;5020407;28;20329;-59
2022/08/04 04:35:54;;;;;;;15.82;7.40;;;;;;;20.16;76.03;101107.63;5027039;28;20584;-58
2022/08/04 04:38:56;;;;;;;15.38;7.63;;;;;;;20.29;75.80;101112.03;5023101;28;20040;-57
2022/08/04 04:41:46;;;;;;;15.25;7.22;;;;;;;20.33;75.48;101108.66;5024983;28;20025;-57
2022/08/04 04:44:23;;;;;;;17.90;7.70;;;;;;;20.32;75.29;101112.41;5023609;28;20080;-56
2022/08/04 04:47:16;;;;;;;15.52;7.45;;;;;;;20.38;75.45;101103.38;5024144;28;20159;-57
2022/08/04 04:49:53;;;;;;;11.68;6.65;;;;;;;20.36;75.29;101102.78;5027717;28;20033;-58
2022/08/04 04:52:41;;;;;;;14.98;6.78;;;;;;;20.38;75.35;101116.06;5025182;28;20757;-58
2022/08/04 04:55:20;;;;;;;14.15;7.47;;;;;;;20.48;75.51;101105.56;5023838;28;20020;-56
2022/08/04 04:57:47;;;;;;;17.90;7.07;;;;;;;20.48;75.17;101110.13;5025747;28;20113;-57
2022/08/04 05:00:13;;;;;;;17.73;7.57;;;;;;;20.50;75.42;101116.94;5024899;28;20026;-55
2022/08/04 05:03:04;;;;;;;13.05;6.78;;;;;;;20.61;75.52;101120.75;5022372;28;20029;-57
2022/08/04 05:05:46;;;;;;;13.25;7.32;;;;;;;20.64;75.49;101126.50;5024924;28;20025;-58
2022/08/04 05:08:27;;;;;;;14.40;7.47;;;;;;;20.61;75.79;101123.44;5023345;28;20026;-59
2022/08/04 05:11:27;;;;;;;14.20;7.07;;;;;;;20.77;75.94;101121.97;5025141;28;20065;-57
2022/08/04 05:14:12;;;;;;;13.20;6.97;;;;;;;20.90;76.12;101121.75;5021507;28;20101;-59
2022/08/04 05:16:55;;;;;;;18.30;7.65;;;;;;;20.86;76.26;101110.59;5024884;28;20029;-58
2022/08/04 05:19:50;;;;;;;16.40;7.60;;;;;;;21.03;76.01;101121.53;5024002;28;20022;-58
2022/08/04 05:22:30;;;;;;;10.85;6.70;;;;;;;21.09;76.23;101122.47;5021515;28;20116;-57
2022/08/04 05:25:03;;;;;;;16.90;7.68;;;;;;;21.09;76.16;101112.50;5026150;28;20497;-57
2022/08/04 05:27:38;;;;;;;13.73;7.15;;;;;;;21.16;75.96;101118.63;5025157;28;20053;-58
2022/08/04 05:30:06;;;;;;;15.77;7.45;;;;;;;21.22;75.62;101122.28;5024910;28;20022;-58
2022/08/04 05:32:54;;;;;;;17.52;8.07;;;;;;;21.27;75.77;101131.34;5026205;28;20034;-59
2022/08/04 05:35:30;;;;;;;14.15;7.72;;;;;;;21.31;75.74;101124.41;5025615;28;20021;-59
2022/08/04 05:37:56;;;;;;;17.65;7.57;;;;;;;21.34;75.80;101120.41;5024317;28;20742;-57
2022/08/04 05:40:24;;;;;;;14.55;7.85;;;;;;;21.42;75.85;101119.28;5024094;28;20048;-58
2022/08/04 05:42:50;;;;;;;16.80;8.07;;;;;;;21.45;76.04;101118.78;5026772;28;20022;-59
2022/08/04 05:45:17;;;;;;;14.43;8.10;;;;;;;21.52;75.78;101112.19;5023625;28;20104;-58
2022/08/04 05:47:44;;;;;;;16.08;8.52;;;;;;;21.57;75.65;101115.00;5024450;28;20034;-59
2022/08/04 05:50:09;;;;;;;13.25;8.02;;;;;;;21.62;75.63;101103.50;5023985;28;20021;-59
2022/08/04 05:52:36;;;;;;;14.07;8.05;;;;;;;21.67;75.51;101098.19;5026145;28;20036;-59
2022/08/04 05:55:02;;;;;;;18.65;8.07;;;;;;;21.72;75.71;101105.63;5023214;28;20030;-59
2022/08/04 05:57:29;;;;;;;13.65;8.10;;;;;;;21.76;75.49;101107.59;5021314;28;20026;-58
2022/08/04 05:59:57;;;;;;;14.10;8.60;;;;;;;21.83;75.55;101107.47;5025189;28;20067;-57
2022/08/04 06:02:24;;;;;;;17.05;8.73;;;;;;;21.90;75.69;101108.13;5022437;28;20053;-57
2022/08/04 06:04:51;;;;;;;20.45;8.68;;;;;;;21.91;75.56;101107.06;5025897;28;20030;-58
2022/08/04 06:07:17;;;;;;;18.90;8.90;;;;;;;22.00;76.08;101107.56;5024911;28;20018;-59
2022/08/04 06:09:43;;;;;;;21.17;9.25;;;;;;;22.07;76.06;101109.06;5021742;28;20495;-57
2022/08/04 06:12:22;;;;;;;14.73;9.13;;;;;;;22.16;76.21;101113.03;5020590;28;20037;-59
2022/08/04 06:14:52;;;;;;;17.10;9.10;;;;;;;22.16;75.82;101115.75;5024479;28;20114;-59
2022/08/04 06:17:31;;;;;;;15.60;9.73;;;;;;;22.10;76.37;101118.59;5022256;28;20068;-59
2022/08/04 06:19:59;;;;;;;17.52;10.38;;;;;;;21.95;76.45;101113.66;5025227;28;20104;-59
2022/08/04 06:22:27;;;;;;;21.73;10.30;;;;;;;21.92;76.41;101112.25;5026504;28;20026;-57
2022/08/04 06:24:54;;;;;;;16.70;10.02;;;;;;;21.85;76.44;101111.56;5020868;28;20065;-57
2022/08/04 06:27:21;;;;;;;18.38;9.40;;;;;;;21.86;76.58;101107.81;5023718;28;20491;-59
2022/08/04 06:29:47;;;;;;;20.77;10.25;;;;;;;21.88;76.73;101115.66;5021276;28;20037;-58
2022/08/04 06:32:23;;;;;;;15.27;9.43;;;;;;;21.86;76.62;101113.22;5023426;28;20140;-57
2022/08/04 06:35:03;;;;;;;22.00;11.10;;;;;;;21.87;76.22;101120.25;5022511;28;20029;-59
2022/08/04 06:37:29;;;;;;;21.90;10.02;;;;;;;21.86;76.26;101117.78;5025247;28;20072;-57
2022/08/04 06:39:55;;;;;;;17.80;9.93;;;;;;;21.85;76.51;101126.97;5019997;28;20478;-58
2022/08/04 06:42:22;;;;;;;23.00;9.73;;;;;;;21.82;76.78;101109.34;5017238;28;20029;-59
2022/08/04 06:44:51;;;;;;;23.63;10.98;;;;;;;21.93;76.88;101143.63;5022095;28;20018;-57
2022/08/04 06:47:19;;;;;;;17.90;10.13;;;;;;;22.00;77.06;101140.81;5012224;28;20156;-58
2022/08/04 06:49:47;;;;;;;18.75;12.13;;;;;;;22.09;77.00;101139.41;5011779;28;20021;-59
2022/08/04 06:52:16;;;;;;;20.98;10.27;;;;;;;22.11;76.78;101142.69;5011474;28;20055;-59
2022/08/04 06:54:46;;;;;;;25.10;11.43;;;;;;;22.21;76.85;101140.19;5017739;28;20466;-60
2022/08/04 06:57:19;;;;;;;21.23;9.73;;;;;;;22.29;76.96;101146.31;5011357;28;20030;-60
2022/08/04 06:59:47;;;;;;;23.63;9.90;;;;;;;22.39;76.50;101149.19;5020269;28;20079;-58
2022/08/04 07:02:16;;;;;;;22.40;10.05;;;;;;;22.47;76.66;101146.91;5013783;28;20413;-59
2022/08/04 07:04:43;;;;;;;20.38;10.48;;;;;;;22.53;76.36;101140.53;5014350;28;20037;-59
2022/08/04 07:07:10;;;;;;;18.48;9.80;;;;;;;22.70;76.42;101142.47;5012835;28;20219;-59
2022/08/04 07:09:35;;;;;;;23.27;9.60;;;;;;;22.82;76.07;101137.84;5016084;28;20268;-59
2022/08/04 07:12:02;;;;;;;19.73;9.77;;;;;;;22.93;75.46;101142.38;5013479;28;20091;-59
2022/08/04 07:14:28;;;;;;;17.67;10.20;;;;;;;23.03;74.89;101144.41;5013225;28;20036;-60
2022/08/04 07:16:55;;;;;;;14.35;9.48;;;;;;;23.07;74.33;101146.38;5013432;28;20105;-60
2022/08/04 07:19:20;;;;;;;20.48;9.45;;;;;;;23.15;73.91;101140.59;5011375;28;20025;-58
2022/08/04 07:21:46;;;;;;;20.35;9.27;;;;;;;23.28;73.71;101139.41;5021368;28;20033;-58
2022/08/04 07:24:12;;;;;;;18.83;9.60;;;;;;;23.42;73.31;101153.47;5018890;28;20033;-60
2022/08/04 07:26:37;;;;;;;20.95;11.23;;;;;;;23.52;73.11;101150.06;5020968;28;20032;-59
2022/08/04 07:29:03;;;;;;;17.60;9.50;;;;;;;23.63;72.82;101151.88;5020080;28;20464;-60
2022/08/04 07:31:29;;;;;;;16.45;9.25;;;;;;;23.69;72.25;101145.47;5022148;28;20049;-60
2022/08/04 07:33:55;;;;;;;17.48;9.70;;;;;;;23.75;71.86;101150.72;5020050;28;20068;-60
2022/08/04 07:36:20;;;;;;;26.58;10.82;;;;;;;23.85;71.18;101146.50;5020254;28;20483;-59
2022/08/04 07:38:46;;;;;;;19.10;8.68;;;;;;;23.95;70.45;101146.63;5019159;28;20033;-57
2022/08/04 07:41:11;;;;;;;16.70;7.43;;;;;;;24.02;70.10;101148.09;5018566;28;20498;-60
2022/08/04 07:43:37;;;;;;;16.13;7.47;;;;;;;24.08;69.53;101155.22;5017548;28;20072;-59
2022/08/04 07:46:03;;;;;;;12.75;7.15;;;;;;;24.18;68.82;101151.00;5018780;28;20383;-57
2022/08/04 07:48:29;;;;;;;10.65;6.53;;;;;;;24.29;68.65;101150.91;5016395;28;20113;-59
2022/08/04 07:50:54;;;;;;;25.60;15.23;;;;;;;24.34;67.76;101159.09;5020649;28;20545;-58
2022/08/04 07:53:20;;;;;;;22.63;13.45;;;;;;;24.40;67.23;101155.34;5021620;28;20036;-60
2022/08/04 07:55:46;;;;;;;13.02;6.30;;;;;;;24.43;66.92;101159.47;5010993;28;20120;-57
2022/08/04 07:58:11;;;;;;;15.93;5.78;;;;;;;24.51;66.46;101167.13;5018333;28;20116;-57
2022/08/04 08:00:37;;;;;;;11.60;5.75;;;;;;;24.51;66.15;101153.56;5017533;28;20033;-58
2022/08/04 08:03:03;;;;;;;8.60;5.60;;;;;;;24.63;65.84;101165.13;5010444;28;20068;-58
2022/08/04 08:05:29;;;;;;;17.77;6.25;;;;;;;24.66;65.39;101161.06;5013767;28;20037;-59
2022/08/04 08:07:56;;;;;;;12.77;5.53;;;;;;;24.76;64.91;101172.03;5010585;28;20033;-58
2022/08/04 08:10:23;;;;;;;14.02;4.75;;;;;;;24.77;64.58;101164.69;5010296;28;20032;-60
2022/08/04 08:12:49;;;;;;;9.05;4.82;;;;;;;24.84;64.46;101176.16;5011377;28;20418;-60
2022/08/04 08:15:14;;;;;;;10.68;4.82;;;;;;;24.97;64.27;101182.00;5010429;28;20022;-59
2022/08/04 08:17:40;;;;;;;13.32;4.55;;;;;;;25.08;64.08;101187.56;5012603;28;20041;-57
2022/08/04 08:20:09;;;;;;;8.98;4.10;;;;;;;25.10;62.73;101185.41;5011884;28;20086;-59
2022/08/04 08:22:36;;;;;;;14.10;4.10;;;;;;;25.10;62.48;101186.22;5011881;28;20029;-60
2022/08/04 08:25:01;;;;;;;12.15;3.75;;;;;;;25.19;62.15;101183.88;5018353;28;20022;-58
2022/08/04 08:27:27;;;;;;;12.50;3.45;;;;;;;25.23;61.68;101185.81;5019754;28;20030;-59
2022/08/04 08:29:53;;;;;;;11.70;3.70;;;;;;;25.30;61.79;101180.97;5019921;28;20029;-59
2022/08/04 08:32:19;;;;;;;10.15;3.45;;;;;;;25.31;61.15;101188.03;5022217;28;20041;-59
2022/08/04 08:34:45;;;;;;;10.00;3.33;;;;;;;25.42;61.18;101182.66;5021870;28;20029;-58
2022/08/04 08:37:23;;;;;;;10.30;2.78;;;;;;;25.53;60.59;101187.94;5021561;28;20079;-60
2022/08/04 08:40:14;;;;;;;10.35;2.58;;;;;;;25.60;59.88;101196.69;5026657;28;20068;-58
2022/08/04 08:43:10;;;;;;;12.27;2.60;;;;;;;25.71;59.80;101200.31;5025166;28;20112;-60
2022/08/04 08:45:38;;;;;;;10.25;2.50;;;;;;;25.71;59.12;101194.88;5019624;28;20018;-59
2022/08/04 08:48:19;;;;;;;7.32;2.30;;;;;;;25.75;58.30;101197.91;5022014;28;20048;-58
2022/08/04 08:51:01;;;;;;;15.07;2.70;;;;;;;25.77;58.32;101203.91;5017997;28;20112;-60
2022/08/04 08:53:43;;;;;;;12.60;2.83;;;;;;;25.80;57.70;101198.75;5004939;28;20365;-60
2022/08/04 08:56:36;;;;;;;6.68;2.80;;;;;;;25.95;57.91;101198.00;5018457;28;20140;-59
2022/08/04 08:59:27;;;;;;;11.27;3.03;;;;;;;26.07;58.00;101205.97;5022755;28;20084;-58
2022/08/04 09:02:05;;;;;;;7.30;2.90;;;;;;;26.15;57.93;101200.03;5018344;28;20056;-60
2022/08/04 09:04:50;;;;;;;16.92;4.68;;;;;;;26.30;57.91;101201.97;5017918;28;20156;-60
2022/08/04 09:07:47;;;;;;;11.80;2.78;;;;;;;26.41;57.68;101206.41;5015591;28;20029;-60
2022/08/04 09:10:17;;;;;;;10.70;2.53;;;;;;;26.59;57.49;101213.25;5014565;28;20036;-59
2022/08/04 09:12:49;;;;;;;11.70;2.78;;;;;;;26.59;56.56;101216.00;5017006;28;20022;-58
2022/08/04 09:15:33;;;;;;;10.95;2.45;;;;;;;26.74;56.62;101216.88;5021585;28;20120;-60
2022/08/04 09:18:08;;;;;;;12.65;2.60;;;;;;;26.74;55.13;101222.31;5026205;28;20052;-58
2022/08/04 09:20:39;;;;;;;7.00;2.28;;;;;;;26.66;54.73;101216.56;5023603;28;20483;-59
2022/08/04 09:23:39;;;;;;;10.73;2.00;;;;;;;26.62;54.77;101224.47;5017672;28;20017;-58
2022/08/04 09:26:17;;;;;;;10.10;2.40;;;;;;;26.50;54.29;101224.69;5024012;28;20045;-58
2022/08/04 09:28:52;;;;;;;10.33;2.40;;;;;;;26.41;53.96;101233.66;5015200;28;20017;-58
2022/08/04 09:31:23;;;;;;;9.25;2.35;;;;;;;26.35;54.39;101232.00;5022144;28;20057;-58
2022/08/04 09:34:09;;;;;;;12.43;2.30;;;;;;;26.29;53.93;101235.72;5017677;28;20021;-58
2022/08/04 09:36:55;;;;;;;8.05;2.40;;;;;;;26.22;54.79;101233.25;5014238;28;20068;-57
2022/08/04 09:39:40;;;;;;;10.07;2.60;;;;;;;26.18;55.11;101230.25;5014852;28;20486;-58
2022/08/04 09:42:13;;;;;;;11.35;2.15;;;;;;;26.22;55.24;101250.41;5004004;28;20100;-59
2022/08/04 09:44:55;;;;;;;9.65;2.47;;;;;;;26.21;54.96;101253.41;5012482;28;20064;-60
2022/08/04 09:47:45;;;;;;;9.02;2.25;;;;;;;26.13;55.57;101253.91;4996781;28;20029;-57
2022/08/04 09:50:36;;;;;;;9.40;2.40;;;;;;;25.99;56.02;101269.88;5014712;28;20045;-57
2022/08/04 09:53:24;;;;;;;6.15;2.42;;;;;;;25.87;56.64;101261.91;5011707;28;20067;-58
2022/08/04 09:56:02;;;;;;;9.82;2.40;;;;;;;25.75;57.15;101269.47;5011381;28;20049;-59
2022/08/04 09:58:27;;;;;;;14.20;2.58;;;;;;;25.69;57.84;101280.53;5011589;28;20116;-59
2022/08/04 10:01:01;;;;;;;9.77;2.40;;;;;;;25.52;58.74;101283.38;5015103;28;20109;-58
2022/08/04 10:03:32;;;;;;;11.07;3.97;;;;;;;25.33;58.84;101304.69;5013287;28;20752;-58
2022/08/04 10:06:03;;;;;;;11.43;2.78;;;;;;;25.09;59.90;101285.16;5012754;28;20049;-60
2022/08/04 10:08:50;;;;;;;9.35;2.78;;;;;;;25.02;60.58;101288.06;5013334;28;20037;-60
2022/08/04 10:11:22;;;;;;;11.18;3.08;;;;;;;24.87;61.18;101306.91;5015029;28;20022;-60
2022/08/04 10:13:59;;;;;;;14.05;3.05;;;;;;;24.76;62.05;101309.75;5012568;28;20494;-60
2022/08/04 10:16:46;;;;;;;10.68;3.30;;;;;;;24.61;64.04;101297.63;5015003;28;20382;-59
2022/08/04 10:19:26;;;;;;;13.15;3.55;;;;;;;24.44;65.33;101286.00;5012497;28;20521;-59
2022/08/04 10:22:16;;;;;;;10.52;3.58;;;;;;;24.29;65.75;101289.34;5012078;28;20025;-58
2022/08/04 10:24:53;;;;;;;9.63;3.55;;;;;;;24.13;66.30;101311.88;5018019;28;20443;-57
2022/08/04 10:27:31;;;;;;;7.07;3.35;;;;;;;23.95;67.19;101352.81;5012546;28;20022;-59
2022/08/04 10:30:09;;;;;;;12.13;3.00;;;;;;;23.70;68.36;101373.00;5014196;28;20490;-59
2022/08/04 10:32:41;;;;;;;11.23;3.05;;;;;;;23.46;69.15;101360.63;5017015;28;20513;-60
2022/08/04 10:35:19;;;;;;;15.52;3.28;;;;;;;23.32;69.66;101365.53;5016472;28;20026;-58
2022/08/04 10:38:03;;;;;;;6.10;2.80;;;;;;;23.22;69.83;101342.84;5013655;28;20488;-59
2022/08/04 10:40:35;;;;;;;7.65;3.15;;;;;;;23.09;70.10;101343.91;5012538;28;20080;-60
2022/08/04 10:43:34;;;;;;;5.85;2.83;;;;;;;23.03;70.75;101353.84;5010696;28;20026;-60
2022/08/04 10:46:15;;;;;;;8.85;3.50;;;;;;;22.93;71.33;101334.69;5010974;28;20487;-58
2022/08/04 10:48:50;;;;;;;11.18;3.28;;;;;;;23.02;71.93;101316.16;5014681;28;20021;-58
2022/08/04 10:51:26;;;;;;;6.47;3.60;;;;;;;23.07;72.51;101273.72;5011642;28;20425;-58
2022/08/04 10:53:59;;;;;;;8.90;3.92;;;;;;;23.28;73.26;101283.06;5012129;28;20026;-58
2022/08/04 10:56:48;;;;;;;8.88;3.80;;;;;;;23.39;73.50;101281.34;5017760;28;20038;-58
2022/08/04 10:59:17;;;;;;;7.38;3.15;;;;;;;23.45;73.74;101266.81;5012831;28;20034;-59
2022/08/04 11:01:51;;;;;;;7.65;3.50;;;;;;;23.51;73.96;101295.66;5017417;28;20038;-58
2022/08/04 11:04:36;;;;;;;11.07;3.85;;;;;;;23.50;73.77;101296.72;5016283;28;20060;-57
2022/08/04 11:07:02;;;;;;;7.32;3.30;;;;;;;23.46;73.75;101319.97;5016677;28;20374;-58
2022/08/04 11:09:30;;;;;;;11.00;3.50;;;;;;;23.32;74.27;101321.31;5011665;28;20026;-57
2022/08/04 11:12:04;;;;;;;14.13;9.82;;;;;;;23.17;74.66;101324.59;5016531;28;20029;-59
2022/08/04 11:14:37;;;;;;;6.10;3.78;;;;;;;23.11;74.82;101315.53;5012322;28;20030;-59
2022/08/04 11:17:21;;;;;;;7.28;3.67;;;;;;;23.26;75.19;101303.34;5011954;28;20018;-59
2022/08/04 11:19:51;;;;;;;9.68;4.10;;;;;;;23.32;75.33;101281.50;5011574;28;20061;-59
2022/08/04 11:22:27;;;;;;;8.02;3.40;;;;;;;23.48;75.30;101293.44;5011105;28;20052;-58
2022/08/04 11:25:31;;;;;;;8.05;3.70;;;;;;;23.65;75.19;101285.31;5010491;28;20423;-59
2022/08/04 11:28:17;;;;;;;6.75;3.60;;;;;;;23.74;75.57;101283.88;4989224;28;20034;-60
2022/08/04 11:31:16;;;;;;;7.68;3.60;;;;;;;23.92;75.91;101282.78;5011334;28;21030;-57
2022/08/04 11:33:49;;;;;;;8.75;3.53;;;;;;;23.98;75.69;101277.16;4995958;28;20410;-59
2022/08/04 11:36:40;;;;;;;7.25;3.20;;;;;;;24.06;75.29;101278.66;5008987;28;20463;-60
2022/08/04 11:39:11;;;;;;;7.63;3.30;;;;;;;24.10;74.81;101287.94;5009294;28;20034;-60
2022/08/04 11:42:01;;;;;;;7.13;2.90;;;;;;;24.30;74.39;101284.72;5013551;28;20053;-60
2022/08/04 11:44:35;;;;;;;7.55;3.10;;;;;;;24.40;73.43;101284.84;5018980;28;20080;-61
2022/08/04 11:47:17;;;;;;;7.80;3.38;;;;;;;24.71;74.04;101286.88;5019592;28;20030;-60
2022/08/04 11:49:46;;;;;;;35.35;23.77;;;;;;;24.92;73.39;101282.50;5019800;28;20129;-60
2022/08/04 11:52:13;;;;;;;;;;;;;;;25.26;72.86;101295.94;5021252;28;20548;-60
2022/08/04 11:54:40;;;;;;;5.82;2.70;;;;;;;25.47;71.44;101303.22;5021494;28;19921;-58
2022/08/04 11:57:06;;;;;;;5.75;3.03;;;;;;;25.61;70.44;101307.13;5020787;28;20544;-59
2022/08/04 11:59:35;;;;;;;4.65;2.70;;;;;;;25.45;68.21;101294.50;5013439;28;20113;-58
2022/08/04 12:02:19;;;;;;;8.10;3.05;;;;;;;25.53;67.54;101293.19;5013244;28;20117;-59